Time;durP1;ratioP1;P1;durP2;ratioP2;P2;SDS_P1;SDS_P2;PMS_P1;PMS_P2;Temp;Humidity;BMP_temperature;BMP_pressure;BME280_temperature;BME280_humidity;BME280_pressure;Samples;Min_cycle;Max_cycle;Signal;HPM_P1;HPM_P2
2022/10/22 00:00:46;;;;;;;13.55;6.72;;;;;;;14.45;100.00;96031.28;5039446;28;20205;-72
2022/10/22 00:03:13;;;;;;;11.30;6.18;;;;;;;14.49;100.00;96034.34;5039114;28;20216;-73
2022/10/22 00:05:41;;;;;;;13.88;6.45;;;;;;;14.56;100.00;96038.63;5039950;28;20212;-72
2022/10/22 00:08:07;;;;;;;13.23;6.70;;;;;;;14.48;100.00;96043.31;5039790;28;20221;-72
2022/10/22 00:10:34;;;;;;;12.82;6.00;;;;;;;14.52;100.00;96047.16;5039702;28;20201;-71
2022/10/22 00:13:00;;;;;;;17.75;7.25;;;;;;;14.52;100.00;96040.03;5039102;28;20641;-72
2022/10/22 00:15:27;;;;;;;13.70;6.55;;;;;;;14.48;100.00;96051.25;5039676;28;20205;-72
2022/10/22 00:17:53;;;;;;;19.33;7.43;;;;;;;14.58;100.00;96046.34;5039486;28;20205;-71
2022/10/22 00:20:19;;;;;;;13.63;7.32;;;;;;;14.63;100.00;96042.06;5038922;28;20197;-72
2022/10/22 00:22:47;;;;;;;15.10;7.13;;;;;;;14.66;100.00;96029.22;5038489;28;20326;-72
2022/10/22 00:25:14;;;;;;;16.60;7.63;;;;;;;14.54;100.00;96045.94;5039042;28;20700;-72
2022/10/22 00:27:40;;;;;;;17.02;7.10;;;;;;;14.53;100.00;96039.00;5039230;28;20233;-73
2022/10/22 00:30:08;;;;;;;17.45;8.30;;;;;;;14.53;100.00;96049.59;5039137;28;20212;-72
2022/10/22 00:32:35;;;;;;;18.45;7.60;;;;;;;14.50;100.00;96055.34;5038111;28;20233;-72
2022/10/22 00:35:01;;;;;;;15.07;6.53;;;;;;;14.44;100.00;96060.66;5039521;28;20205;-73
2022/10/22 00:37:29;;;;;;;12.38;5.78;;;;;;;14.44;100.00;96063.28;5038905;28;20669;-73
2022/10/22 00:39:56;;;;;;;15.43;5.53;;;;;;;14.55;100.00;96073.25;5038667;28;20368;-72
2022/10/22 00:42:25;;;;;;;10.55;5.50;;;;;;;14.61;100.00;96075.09;5038761;28;20221;-71
2022/10/22 00:45:15;;;;;;;11.10;5.72;;;;;;;14.63;100.00;96066.72;5040021;28;20216;-73
2022/10/22 00:47:46;;;;;;;8.82;4.45;;;;;;;14.61;100.00;96069.81;5039011;28;20229;-71
2022/10/22 00:50:15;;;;;;;11.07;4.53;;;;;;;14.61;100.00;96085.72;5038631;28;20201;-72
2022/10/22 00:52:42;;;;;;;10.48;4.70;;;;;;;14.56;100.00;96090.81;5038777;28;20225;-72
2022/10/22 00:55:10;;;;;;;7.82;3.67;;;;;;;14.57;100.00;96100.41;5039866;28;20201;-72
2022/10/22 00:57:37;;;;;;;8.10;4.07;;;;;;;14.61;100.00;96091.81;5038823;28;20201;-71
2022/10/22 01:00:05;;;;;;;9.88;3.72;;;;;;;14.61;100.00;96098.97;5038589;28;20580;-71
2022/10/22 01:02:32;;;;;;;6.32;3.00;;;;;;;14.53;100.00;96091.22;5038002;28;20228;-71
2022/10/22 01:04:58;;;;;;;4.68;1.90;;;;;;;14.37;100.00;96078.38;5038631;28;20201;-73
2022/10/22 01:07:25;;;;;;;4.03;1.67;;;;;;;14.42;100.00;96078.56;5038727;28;20198;-73
2022/10/22 01:10:05;;;;;;;3.38;1.77;;;;;;;14.42;100.00;96073.28;5038913;28;20209;-71
2022/10/22 01:12:43;;;;;;;2.28;1.30;;;;;;;14.41;100.00;96066.34;5038213;28;20224;-71
2022/10/22 01:15:17;;;;;;;3.05;1.50;;;;;;;14.35;100.00;96056.56;5038949;28;20189;-73
2022/10/22 01:17:52;;;;;;;4.13;1.30;;;;;;;14.25;100.00;96058.81;5038251;28;20681;-73
2022/10/22 01:20:40;;;;;;;2.58;1.02;;;;;;;14.26;100.00;96063.09;5038105;28;20234;-72
2022/10/22 01:23:21;;;;;;;2.08;1.00;;;;;;;14.19;100.00;96078.16;5037851;28;20217;-73
2022/10/22 01:25:54;;;;;;;7.70;0.98;;;;;;;14.17;100.00;96086.31;5038235;28;20719;-73
2022/10/22 01:28:37;;;;;;;3.00;1.30;;;;;;;14.25;100.00;96080.00;5038799;28;20217;-72
2022/10/22 01:31:05;;;;;;;4.43;1.30;;;;;;;14.15;100.00;96083.06;5038113;28;20685;-72
2022/10/22 01:33:33;;;;;;;3.00;1.25;;;;;;;14.14;100.00;96080.59;5038002;28;20709;-71
2022/10/22 01:36:00;;;;;;;2.30;1.10;;;;;;;14.10;100.00;96087.31;5038216;28;20209;-71
2022/10/22 01:38:27;;;;;;;2.35;1.23;;;;;;;14.08;100.00;96086.72;5039277;28;20197;-73
2022/10/22 01:40:55;;;;;;;3.83;1.60;;;;;;;14.12;100.00;96086.09;5038254;28;20204;-73
2022/10/22 01:43:21;;;;;;;4.72;1.48;;;;;;;14.04;100.00;96091.56;5036889;28;20213;-73
2022/10/22 01:45:53;;;;;;;2.45;1.35;;;;;;;14.11;100.00;96091.59;5038528;28;20216;-73
2022/10/22 01:48:34;;;;;;;8.95;1.50;;;;;;;14.07;100.00;96095.66;5038309;28;20232;-72
2022/10/22 01:51:17;;;;;;;2.33;1.15;;;;;;;14.05;100.00;96092.38;5037778;28;20697;-71
2022/10/22 01:53:52;;;;;;;4.00;1.27;;;;;;;13.98;100.00;96086.25;5038103;28;20578;-71
2022/10/22 01:56:35;;;;;;;1.40;1.25;;;;;;;14.01;100.00;96085.84;5039151;28;20212;-72
2022/10/22 01:59:07;;;;;;;3.85;1.50;;;;;;;14.01;100.00;96084.03;5038484;28;20251;-72
2022/10/22 02:01:42;;;;;;;4.93;1.88;;;;;;;13.97;100.00;96073.22;5037799;28;20212;-71
2022/10/22 02:04:15;;;;;;;3.53;1.55;;;;;;;13.99;100.00;96074.66;5037909;28;20200;-72
2022/10/22 02:06:44;;;;;;;4.55;1.55;;;;;;;13.95;100.00;96075.25;5038498;28;20566;-73
2022/10/22 02:09:13;;;;;;;2.38;1.50;;;;;;;13.89;100.00;96090.13;5038066;28;20601;-72
2022/10/22 02:11:41;;;;;;;5.35;1.60;;;;;;;13.86;100.00;96082.59;5038285;28;20209;-72
2022/10/22 02:14:10;;;;;;;3.60;1.92;;;;;;;13.82;100.00;96065.44;5037433;28;20208;-72
2022/10/22 02:16:41;;;;;;;5.45;2.13;;;;;;;13.90;100.00;96067.91;5037619;28;20205;-72
2022/10/22 02:19:15;;;;;;;5.70;1.83;;;;;;;13.85;100.00;96059.75;5037968;28;20194;-73
2022/10/22 02:21:43;;;;;;;7.28;2.10;;;;;;;13.82;100.00;96056.69;5037937;28;20736;-72
2022/10/22 02:24:09;;;;;;;2.53;1.60;;;;;;;13.70;100.00;96061.75;5037262;28;20198;-72
2022/10/22 02:26:40;;;;;;;2.33;1.52;;;;;;;13.86;100.00;96056.09;5038314;28;20216;-73
2022/10/22 02:29:13;;;;;;;3.70;2.00;;;;;;;13.89;100.00;96060.97;5038209;28;20244;-72
2022/10/22 02:31:45;;;;;;;2.30;1.60;;;;;;;13.84;100.00;96065.25;5037946;28;20205;-73
2022/10/22 02:34:16;;;;;;;5.30;1.58;;;;;;;13.82;100.00;96072.56;5037490;28;20204;-72
2022/10/22 02:36:44;;;;;;;3.58;1.80;;;;;;;13.74;100.00;96067.47;5038818;28;20202;-72
2022/10/22 02:39:12;;;;;;;3.40;1.40;;;;;;;13.70;100.00;96067.03;5038175;28;20216;-72
2022/10/22 02:41:48;;;;;;;2.35;1.52;;;;;;;13.72;100.00;96078.25;5038145;28;20212;-73
2022/10/22 02:44:15;;;;;;;5.93;1.67;;;;;;;13.64;100.00;96077.63;5036061;28;20208;-71
2022/10/22 02:46:43;;;;;;;4.68;2.00;;;;;;;13.64;100.00;96078.44;5037830;28;20209;-73
2022/10/22 02:49:10;;;;;;;4.80;1.52;;;;;;;13.58;100.00;96073.94;5038201;28;20225;-72
2022/10/22 02:51:36;;;;;;;3.30;1.40;;;;;;;13.57;100.00;96077.59;5038143;28;20201;-72
2022/10/22 02:54:03;;;;;;;3.33;1.40;;;;;;;13.56;100.00;96075.97;5039865;28;20209;-72
2022/10/22 02:56:29;;;;;;;3.13;1.55;;;;;;;13.50;100.00;96092.66;5042146;28;20220;-73
2022/10/22 02:58:56;;;;;;;2.92;1.60;;;;;;;13.48;100.00;96086.72;5041423;28;20205;-72
2022/10/22 03:01:22;;;;;;;3.50;1.67;;;;;;;13.54;100.00;96087.75;5041594;28;20198;-71
2022/10/22 03:03:50;;;;;;;4.05;1.75;;;;;;;13.60;100.00;96102.88;5040312;28;20221;-73
2022/10/22 03:06:17;;;;;;;3.33;1.65;;;;;;;13.49;100.00;96106.91;5042159;28;20212;-72
2022/10/22 03:08:44;;;;;;;4.40;1.92;;;;;;;13.46;100.00;96104.63;5041365;28;20725;-72
2022/10/22 03:11:10;;;;;;;2.65;1.60;;;;;;;13.50;100.00;96108.53;5041233;28;20212;-74
2022/10/22 03:13:37;;;;;;;3.10;1.48;;;;;;;13.52;100.00;96117.09;5040722;28;20229;-73
2022/10/22 03:16:03;;;;;;;3.85;1.20;;;;;;;13.46;100.00;96109.13;5041577;28;20198;-73
2022/10/22 03:18:30;;;;;;;2.92;1.48;;;;;;;13.55;100.00;96108.75;5041589;28;20628;-72
2022/10/22 03:21:08;;;;;;;2.83;1.15;;;;;;;13.67;100.00;96104.53;5041419;28;20212;-73
2022/10/22 03:23:35;;;;;;;3.05;1.65;;;;;;;13.55;100.00;96100.78;5040126;28;20229;-71
2022/10/22 03:26:02;;;;;;;2.15;1.20;;;;;;;13.48;100.00;96105.25;5040893;28;20961;-73
2022/10/22 03:28:29;;;;;;;2.47;1.20;;;;;;;13.43;100.00;96112.16;5041615;28;20229;-73
2022/10/22 03:30:55;;;;;;;2.03;1.13;;;;;;;13.45;100.00;96112.78;5040932;28;20208;-71
2022/10/22 03:33:22;;;;;;;2.10;1.52;;;;;;;13.38;100.00;96130.47;5040881;28;20729;-72
2022/10/22 03:35:48;;;;;;;1.58;1.25;;;;;;;13.47;100.00;96121.34;5040942;28;20216;-73
2022/10/22 03:38:16;;;;;;;1.70;1.20;;;;;;;13.51;100.00;96126.03;5041417;28;20198;-73
2022/10/22 03:40:44;;;;;;;4.38;1.05;;;;;;;13.51;100.00;96126.03;5040772;28;20205;-72
2022/10/22 03:43:11;;;;;;;3.47;1.10;;;;;;;13.47;100.00;96119.50;5039628;28;20784;-71
2022/10/22 03:45:37;;;;;;;3.97;1.48;;;;;;;13.47;100.00;96113.41;5041175;28;20205;-73
2022/10/22 03:48:05;;;;;;;3.47;1.10;;;;;;;13.52;100.00;96124.22;5040780;28;20217;-71
2022/10/22 03:50:31;;;;;;;2.97;1.13;;;;;;;13.52;100.00;96132.16;5040498;28;20205;-73
2022/10/22 03:52:58;;;;;;;2.50;1.10;;;;;;;13.50;100.00;96139.47;5040064;28;20229;-73
2022/10/22 03:55:26;;;;;;;2.83;1.02;;;;;;;13.58;100.00;96134.84;5041475;28;20827;-73
2022/10/22 03:57:52;;;;;;;3.35;1.25;;;;;;;13.39;100.00;96148.78;5040575;28;20219;-73
2022/10/22 04:00:19;;;;;;;2.58;1.30;;;;;;;13.44;100.00;96151.69;5040325;28;21051;-71
2022/10/22 04:02:46;;;;;;;2.72;1.05;;;;;;;13.38;100.00;96158.75;5039830;28;20221;-71
2022/10/22 04:05:12;;;;;;;4.57;1.00;;;;;;;13.43;100.00;96165.91;5039625;28;20201;-73
2022/10/22 04:07:39;;;;;;;1.65;0.88;;;;;;;13.49;100.00;96159.00;5040386;28;20213;-71
2022/10/22 04:10:06;;;;;;;1.48;0.90;;;;;;;13.47;100.00;96167.16;5040569;28;20221;-72
2022/10/22 04:12:34;;;;;;;1.00;0.70;;;;;;;13.48;100.00;96166.16;5039454;28;20312;-73
2022/10/22 04:15:00;;;;;;;2.42;0.90;;;;;;;13.37;100.00;96165.88;5040023;28;20202;-73
2022/10/22 04:17:33;;;;;;;0.80;0.80;;;;;;;13.47;100.00;96164.50;5041352;28;20197;-71
2022/10/22 04:19:59;;;;;;;2.00;0.77;;;;;;;13.38;100.00;96166.69;5039594;28;20204;-72
2022/10/22 04:22:26;;;;;;;5.43;1.30;;;;;;;13.31;100.00;96156.06;5039311;28;20221;-71
2022/10/22 04:24:52;;;;;;;3.72;1.10;;;;;;;13.30;100.00;96161.56;5040238;28;20205;-73
2022/10/22 04:27:19;;;;;;;5.95;1.23;;;;;;;13.31;100.00;96155.25;5040323;28;20201;-72
2022/10/22 04:29:47;;;;;;;1.27;0.90;;;;;;;13.31;100.00;96150.78;5040199;28;20236;-71
2022/10/22 04:32:13;;;;;;;1.70;1.13;;;;;;;13.20;100.00;96142.56;5039896;28;20217;-73
2022/10/22 04:34:40;;;;;;;10.25;1.80;;;;;;;13.26;100.00;96139.16;5039762;28;20205;-73
2022/10/22 04:37:06;;;;;;;4.07;1.17;;;;;;;13.20;100.00;96122.25;5040139;28;20212;-71
2022/10/22 04:39:32;;;;;;;1.20;1.10;;;;;;;13.30;100.00;96116.56;5040501;28;20288;-71
2022/10/22 04:41:59;;;;;;;3.45;0.95;;;;;;;13.23;100.00;96110.44;5040085;28;21217;-72
2022/10/22 04:44:25;;;;;;;1.05;0.85;;;;;;;13.11;100.00;96118.13;5039373;28;20236;-71
2022/10/22 04:46:53;;;;;;;1.13;0.80;;;;;;;13.20;100.00;96124.06;5039926;28;20201;-73
2022/10/22 04:49:20;;;;;;;2.67;1.15;;;;;;;13.30;100.00;96106.81;5037130;28;20221;-71
2022/10/22 04:51:46;;;;;;;0.85;0.60;;;;;;;13.27;100.00;96096.59;5039094;28;20233;-71
2022/10/22 04:54:13;;;;;;;2.10;1.00;;;;;;;13.26;100.00;96104.75;5038478;28;20212;-73
2022/10/22 04:56:39;;;;;;;1.98;1.00;;;;;;;13.24;100.00;96090.88;5039798;28;20681;-73
2022/10/22 04:59:08;;;;;;;2.50;1.17;;;;;;;13.32;100.00;96082.81;5039470;28;20201;-73
2022/10/22 05:01:36;;;;;;;1.88;1.00;;;;;;;13.11;100.00;96085.53;5038862;28;20204;-73
2022/10/22 05:04:06;;;;;;;3.95;1.02;;;;;;;13.18;100.00;96083.75;5038644;28;20209;-73
2022/10/22 05:06:34;;;;;;;1.67;1.10;;;;;;;13.10;100.00;96084.72;5038878;28;20204;-71
2022/10/22 05:09:03;;;;;;;4.20;0.80;;;;;;;13.19;100.00;96078.25;5038997;28;20224;-72
2022/10/22 05:11:33;;;;;;;1.58;0.88;;;;;;;13.11;100.00;96075.78;5039165;28;20650;-73
2022/10/22 05:14:00;;;;;;;6.47;0.90;;;;;;;13.12;100.00;96087.19;5038595;28;20731;-71
2022/10/22 05:16:28;;;;;;;1.00;0.80;;;;;;;13.03;100.00;96093.63;5038223;28;20212;-71
2022/10/22 05:18:55;;;;;;;2.05;1.10;;;;;;;13.03;100.00;96093.63;5038006;28;20205;-71
2022/10/22 05:21:22;;;;;;;4.57;1.02;;;;;;;13.09;100.00;96091.03;5038135;28;20211;-71
2022/10/22 05:23:50;;;;;;;1.80;1.10;;;;;;;13.05;100.00;96091.63;5036991;28;20221;-72
2022/10/22 05:26:19;;;;;;;1.70;1.15;;;;;;;13.13;100.00;96112.63;5038094;28;20208;-72
2022/10/22 05:28:47;;;;;;;2.47;0.85;;;;;;;13.10;100.00;96108.53;5038035;28;20205;-73
2022/10/22 05:31:14;;;;;;;1.30;0.70;;;;;;;13.03;100.00;96125.38;5037659;28;20201;-72
2022/10/22 05:33:41;;;;;;;3.45;0.80;;;;;;;13.04;100.00;96134.97;5037363;28;20237;-72
2022/10/22 05:36:09;;;;;;;0.80;0.60;;;;;;;13.15;100.00;96121.16;5038024;28;20205;-71
2022/10/22 05:38:37;;;;;;;1.67;0.77;;;;;;;13.20;100.00;96129.34;5037769;28;20292;-72
2022/10/22 05:41:05;;;;;;;2.55;1.20;;;;;;;13.22;100.00;96137.91;5037740;28;20204;-71
2022/10/22 05:43:32;;;;;;;1.60;1.17;;;;;;;13.12;100.00;96145.38;5037069;28;20221;-72
2022/10/22 05:46:02;;;;;;;2.88;0.90;;;;;;;13.23;100.00;96135.06;5037801;28;20209;-72
2022/10/22 05:48:29;;;;;;;1.40;1.10;;;;;;;13.11;100.00;96144.56;5037676;28;20240;-73
2022/10/22 05:50:55;;;;;;;1.90;0.98;;;;;;;13.17;100.00;96157.00;5037154;28;20239;-71
2022/10/22 05:53:22;;;;;;;5.00;1.20;;;;;;;13.03;100.00;96160.56;5036919;28;20225;-72
2022/10/22 05:55:50;;;;;;;0.73;0.73;;;;;;;13.20;100.00;96167.22;5037157;28;20232;-72
2022/10/22 05:58:16;;;;;;;1.08;0.80;;;;;;;13.06;100.00;96168.16;5037406;28;20197;-72
2022/10/22 06:00:43;;;;;;;1.20;0.80;;;;;;;13.17;100.00;96180.00;5037292;28;20208;-72
2022/10/22 06:03:09;;;;;;;2.10;1.08;;;;;;;13.18;100.00;96176.38;5036477;28;20236;-72
2022/10/22 06:05:36;;;;;;;1.75;1.10;;;;;;;13.32;100.00;96175.44;5037118;28;21184;-72
2022/10/22 06:08:04;;;;;;;1.02;0.70;;;;;;;13.31;100.00;96187.03;5037387;28;20654;-71
2022/10/22 06:10:31;;;;;;;1.90;0.98;;;;;;;13.32;100.00;96199.25;5037495;28;20224;-72
2022/10/22 06:13:00;;;;;;;1.63;0.75;;;;;;;13.40;100.00;96197.25;5036057;28;20221;-72
2022/10/22 06:15:26;;;;;;;0.90;0.80;;;;;;;13.34;100.00;96205.97;5037200;28;20223;-71
2022/10/22 06:17:53;;;;;;;3.45;1.67;;;;;;;13.31;100.00;96211.66;5037054;28;20205;-71
2022/10/22 06:20:19;;;;;;;4.15;1.23;;;;;;;13.33;100.00;96220.22;5037421;28;20568;-71
2022/10/22 06:22:47;;;;;;;3.03;1.00;;;;;;;13.35;100.00;96230.59;5036225;28;20217;-72
2022/10/22 06:25:13;;;;;;;1.33;0.73;;;;;;;13.43;100.00;96244.53;5036784;28;20201;-72
2022/10/22 06:27:40;;;;;;;5.38;4.13;;;;;;;13.36;100.00;96242.84;5037911;28;20201;-73
2022/10/22 06:30:09;;;;;;;3.35;1.00;;;;;;;13.34;100.00;96242.19;5040840;28;20225;-72
2022/10/22 06:32:35;;;;;;;2.20;1.40;;;;;;;13.21;100.00;96242.13;5038828;28;20235;-72
2022/10/22 06:35:02;;;;;;;1.75;0.93;;;;;;;13.34;100.00;96235.09;5039284;28;20913;-71
2022/10/22 06:37:28;;;;;;;1.30;0.90;;;;;;;13.33;100.00;96243.19;5040371;28;20198;-72
2022/10/22 06:39:55;;;;;;;3.05;1.08;;;;;;;13.33;100.00;96243.19;5039291;28;20205;-72
2022/10/22 06:42:21;;;;;;;1.25;1.00;;;;;;;13.38;100.00;96245.09;5038355;28;20781;-71
2022/10/22 06:44:48;;;;;;;2.00;1.25;;;;;;;13.35;100.00;96242.00;5039421;28;20212;-71
2022/10/22 06:47:15;;;;;;;3.75;1.35;;;;;;;13.48;100.00;96255.34;5039766;28;20208;-72
2022/10/22 06:49:42;;;;;;;2.20;1.10;;;;;;;13.40;100.00;96261.59;5040655;28;20229;-72
2022/10/22 06:52:09;;;;;;;2.33;1.10;;;;;;;13.46;100.00;96267.94;5040446;28;20221;-71
2022/10/22 06:54:35;;;;;;;2.30;1.40;;;;;;;13.48;100.00;96277.34;5040111;28;20205;-72
2022/10/22 06:57:02;;;;;;;2.00;1.35;;;;;;;13.52;100.00;96286.53;5040654;28;20256;-72
2022/10/22 06:59:28;;;;;;;1.65;1.17;;;;;;;13.56;100.00;96284.31;5040935;28;20205;-72
2022/10/22 07:01:55;;;;;;;2.65;1.00;;;;;;;13.59;100.00;96274.16;5040130;28;21170;-72
2022/10/22 07:04:22;;;;;;;4.07;1.00;;;;;;;13.71;100.00;96277.88;5039540;28;20224;-73
2022/10/22 07:06:49;;;;;;;2.25;1.00;;;;;;;13.65;100.00;96280.50;5040397;28;20294;-71
2022/10/22 07:09:15;;;;;;;3.92;0.90;;;;;;;13.74;100.00;96279.34;5040458;28;20205;-72
2022/10/22 07:11:44;;;;;;;1.75;1.13;;;;;;;13.81;100.00;96281.00;5040403;28;20204;-72
2022/10/22 07:14:11;;;;;;;1.23;0.80;;;;;;;13.83;100.00;96286.91;5039343;28;20216;-71
2022/10/22 07:16:37;;;;;;;1.15;0.65;;;;;;;13.78;100.00;96284.03;5040670;28;20209;-72
2022/10/22 07:19:05;;;;;;;6.10;0.80;;;;;;;13.86;100.00;96285.69;5040004;28;20198;-72
2022/10/22 07:21:33;;;;;;;3.22;0.70;;;;;;;13.91;100.00;96292.03;5040289;28;20204;-73
2022/10/22 07:23:59;;;;;;;1.83;0.80;;;;;;;13.91;100.00;96300.00;5038866;28;20209;-72
2022/10/22 07:26:27;;;;;;;5.90;0.93;;;;;;;14.02;100.00;96296.81;5040115;28;20205;-72
2022/10/22 07:28:54;;;;;;;2.42;1.30;;;;;;;13.97;100.00;96301.88;5039962;28;20216;-72
2022/10/22 07:31:20;;;;;;;1.73;1.08;;;;;;;13.99;100.00;96321.03;5039467;28;20225;-72
2022/10/22 07:33:47;;;;;;;1.48;0.80;;;;;;;14.03;100.00;96311.69;5039438;28;20235;-72
2022/10/22 07:36:16;;;;;;;2.45;0.75;;;;;;;14.12;100.00;96310.53;5039614;28;20741;-71
2022/10/22 07:38:44;;;;;;;3.78;0.80;;;;;;;14.23;100.00;96304.66;5039611;28;20205;-72
2022/10/22 07:41:11;;;;;;;2.05;1.10;;;;;;;14.15;100.00;96304.84;5038428;28;20225;-72
2022/10/22 07:43:38;;;;;;;1.00;0.73;;;;;;;14.23;100.00;96305.50;5038587;28;20228;-72
2022/10/22 07:46:07;;;;;;;1.27;0.95;;;;;;;14.21;100.00;96304.06;5039308;28;20205;-71
2022/10/22 07:48:33;;;;;;;3.60;1.75;;;;;;;14.17;100.00;96310.78;5039519;28;20241;-72
2022/10/22 07:51:00;;;;;;;4.95;2.13;;;;;;;14.22;100.00;96316.31;5039396;28;20233;-72
2022/10/22 07:53:26;;;;;;;5.47;1.80;;;;;;;14.11;100.00;96315.00;5038640;28;20993;-72
2022/10/22 07:55:55;;;;;;;1.83;1.30;;;;;;;14.22;100.00;96329.56;5039304;28;20216;-72
2022/10/22 07:58:22;;;;;;;7.40;3.70;;;;;;;14.31;100.00;96336.31;5039689;28;20319;-72
2022/10/22 08:00:50;;;;;;;4.28;2.10;;;;;;;14.25;100.00;96331.81;5039280;28;20205;-72
2022/10/22 08:03:18;;;;;;;3.50;1.95;;;;;;;14.29;100.00;96322.44;5038925;28;20221;-72
2022/10/22 08:05:45;;;;;;;6.95;2.10;;;;;;;14.25;100.00;96329.16;5039584;28;20212;-73
2022/10/22 08:08:13;;;;;;;4.00;1.90;;;;;;;14.31;100.00;96331.03;5039914;28;20198;-72
2022/10/22 08:10:39;;;;;;;4.25;1.85;;;;;;;14.42;100.00;96327.78;5039649;28;20275;-72
2022/10/22 08:13:08;;;;;;;2.17;1.30;;;;;;;14.56;100.00;96337.44;5038923;28;20225;-72
2022/10/22 08:15:35;;;;;;;5.32;2.60;;;;;;;14.44;100.00;96341.69;5039712;28;20215;-72
2022/10/22 08:18:01;;;;;;;6.05;3.28;;;;;;;14.52;100.00;96350.25;5039413;28;20552;-72
2022/10/22 08:20:28;;;;;;;6.03;2.63;;;;;;;14.47;100.00;96358.00;5039132;28;20205;-73
2022/10/22 08:22:54;;;;;;;3.40;1.10;;;;;;;14.47;100.00;96352.69;5037907;28;20605;-73
2022/10/22 08:25:21;;;;;;;2.25;1.30;;;;;;;14.41;100.00;96347.34;5038343;28;20220;-72
2022/10/22 08:27:47;;;;;;;4.60;1.30;;;;;;;14.55;100.00;96351.69;5038665;28;20212;-72
2022/10/22 08:30:15;;;;;;;2.63;1.00;;;;;;;14.66;100.00;96346.63;5038714;28;20225;-72
2022/10/22 08:32:42;;;;;;;4.88;2.58;;;;;;;14.57;100.00;96350.50;5037868;28;20229;-71
2022/10/22 08:35:09;;;;;;;5.93;3.78;;;;;;;14.69;100.00;96352.38;5038736;28;20220;-73
2022/10/22 08:37:35;;;;;;;6.07;3.40;;;;;;;14.58;100.00;96356.63;5038400;28;20209;-72
2022/10/22 08:40:02;;;;;;;5.40;2.58;;;;;;;14.68;100.00;96361.34;5038379;28;20566;-72
2022/10/22 08:42:53;;;;;;;4.30;3.22;;;;;;;14.89;100.00;96358.56;5037598;28;20228;-73
2022/10/22 08:45:26;;;;;;;3.35;2.60;;;;;;;15.02;100.00;96357.75;5038211;28;20205;-72
2022/10/22 08:48:16;;;;;;;2.25;1.30;;;;;;;15.06;100.00;96359.81;5038270;28;20220;-73
2022/10/22 08:50:46;;;;;;;7.82;1.85;;;;;;;15.16;100.00;96359.41;5038153;28;20225;-73
2022/10/22 08:53:16;;;;;;;0.70;0.70;;;;;;;15.14;100.00;96362.28;5037548;28;20225;-72
2022/10/22 08:55:43;;;;;;;3.80;0.60;;;;;;;15.18;100.00;96366.16;5038234;28;20201;-73
2022/10/22 08:58:22;;;;;;;2.58;0.90;;;;;;;15.34;100.00;96371.94;5037652;28;20212;-73
2022/10/22 09:00:58;;;;;;;1.77;0.90;;;;;;;15.33;100.00;96372.97;5037819;28;20665;-73
2022/10/22 09:03:36;;;;;;;1.70;1.30;;;;;;;15.36;100.00;96372.56;5036107;28;20225;-72
2022/10/22 09:06:10;;;;;;;3.03;1.25;;;;;;;15.47;100.00;96373.81;5037713;28;20209;-74
2022/10/22 09:08:38;;;;;;;2.85;1.40;;;;;;;15.53;100.00;96378.28;5037453;28;20704;-73
2022/10/22 09:11:15;;;;;;;2.55;1.50;;;;;;;15.60;100.00;96379.91;5036994;28;20232;-73
2022/10/22 09:13:44;;;;;;;5.35;1.40;;;;;;;15.73;100.00;96374.59;5036995;28;20228;-73
2022/10/22 09:16:17;;;;;;;3.13;1.25;;;;;;;15.79;100.00;96370.31;5037546;28;20205;-73
2022/10/22 09:18:53;;;;;;;2.17;1.08;;;;;;;15.67;100.00;96382.56;5037414;28;20213;-73
2022/10/22 09:21:27;;;;;;;1.85;1.02;;;;;;;15.49;100.00;96377.06;5037254;28;20207;-73
2022/10/22 09:24:04;;;;;;;1.40;1.02;;;;;;;15.45;100.00;96386.44;5037210;28;20207;-73
2022/10/22 09:26:34;;;;;;;1.33;0.80;;;;;;;15.33;100.00;96388.09;5037066;28;20342;-73
2022/10/22 09:29:01;;;;;;;1.15;0.80;;;;;;;15.34;100.00;96395.03;5037299;28;20213;-73
2022/10/22 09:31:31;;;;;;;3.20;1.63;;;;;;;15.56;100.00;96396.47;5037407;28;20224;-73
2022/10/22 09:34:04;;;;;;;4.72;0.93;;;;;;;15.50;100.00;96394.63;5036538;28;21209;-73
2022/10/22 09:36:32;;;;;;;2.70;1.00;;;;;;;15.60;100.00;96395.84;5037299;28;20201;-73
2022/10/22 09:38:59;;;;;;;2.83;1.48;;;;;;;15.69;100.00;96397.28;5037326;28;20201;-73
2022/10/22 09:41:29;;;;;;;2.60;1.50;;;;;;;15.79;100.00;96399.56;5036788;28;20197;-73
2022/10/22 09:43:57;;;;;;;3.45;1.73;;;;;;;15.72;100.00;96394.25;5036607;28;20212;-73
2022/10/22 09:46:27;;;;;;;3.08;1.58;;;;;;;15.91;100.00;96399.53;5037063;28;20677;-73
2022/10/22 09:49:02;;;;;;;5.28;1.35;;;;;;;16.19;100.00;96409.94;5036875;28;20562;-73
2022/10/22 09:51:52;;;;;;;2.20;1.50;;;;;;;16.24;100.00;96410.97;5037120;28;20205;-73
2022/10/22 09:54:21;;;;;;;2.85;1.70;;;;;;;16.20;100.00;96419.56;5036513;28;20204;-73
2022/10/22 09:56:56;;;;;;;4.53;1.75;;;;;;;16.40;100.00;96410.53;5037264;28;20255;-72
2022/10/22 09:59:29;;;;;;;2.00;1.42;;;;;;;16.43;100.00;96414.63;5036700;28;20201;-73
2022/10/22 10:02:11;;;;;;;3.60;1.40;;;;;;;16.37;100.00;96415.44;5036728;28;20224;-72
2022/10/22 10:04:46;;;;;;;3.40;1.73;;;;;;;16.44;100.00;96409.09;5036043;28;20865;-73
2022/10/22 10:07:17;;;;;;;2.03;1.35;;;;;;;16.62;100.00;96412.75;5037260;28;20201;-73
2022/10/22 10:09:44;;;;;;;3.67;1.42;;;;;;;16.60;100.00;96411.31;5039787;28;20208;-74
2022/10/22 10:12:22;;;;;;;2.22;1.52;;;;;;;16.98;100.00;96412.16;5036070;28;20229;-73
2022/10/22 10:14:56;;;;;;;1.38;1.15;;;;;;;16.92;100.00;96410.38;5036863;28;20279;-74
2022/10/22 10:17:35;;;;;;;1.48;1.10;;;;;;;16.77;100.00;96415.94;5036972;28;20208;-73
2022/10/22 10:20:16;;;;;;;1.80;1.15;;;;;;;16.91;100.00;96422.03;5037026;28;20201;-73
2022/10/22 10:22:56;;;;;;;1.63;0.98;;;;;;;17.00;100.00;96418.91;5035272;28;20667;-74
2022/10/22 10:25:41;;;;;;;1.65;1.10;;;;;;;16.98;100.00;96421.00;5038041;28;20660;-73
2022/10/22 10:28:24;;;;;;;2.67;1.20;;;;;;;16.87;100.00;96429.63;5039037;28;20196;-73
2022/10/22 10:30:56;;;;;;;1.40;1.10;;;;;;;16.85;100.00;96420.22;5038618;28;20229;-72
2022/10/22 10:33:31;;;;;;;2.70;1.17;;;;;;;16.87;100.00;96428.81;5037310;28;20229;-71
2022/10/22 10:36:07;;;;;;;1.42;0.90;;;;;;;16.73;100.00;96436.03;5038228;28;20651;-70
2022/10/22 10:38:51;;;;;;;2.38;1.40;;;;;;;16.78;100.00;96430.09;5037584;28;20213;-72
2022/10/22 10:41:24;;;;;;;2.15;1.30;;;;;;;16.84;100.00;96435.38;5037029;28;20363;-71
2022/10/22 10:44:05;;;;;;;2.47;1.20;;;;;;;16.92;100.00;96431.66;5037594;28;20229;-72
2022/10/22 10:46:40;;;;;;;1.80;1.02;;;;;;;16.74;100.00;96434.19;5037373;28;20216;-72
2022/10/22 10:49:09;;;;;;;3.08;1.52;;;;;;;16.81;100.00;96438.44;5037304;28;21666;-71
2022/10/22 10:51:50;;;;;;;1.70;1.02;;;;;;;16.84;100.00;96435.38;5037105;28;20279;-72
2022/10/22 10:54:26;;;;;;;3.03;1.15;;;;;;;16.78;100.00;96440.72;5037052;28;20202;-73
2022/10/22 10:56:57;;;;;;;2.50;1.20;;;;;;;16.94;100.00;96434.91;5037510;28;20209;-73
2022/10/22 10:59:35;;;;;;;4.05;1.25;;;;;;;17.17;100.00;96442.19;5037407;28;20209;-71
2022/10/22 11:02:18;;;;;;;3.17;1.50;;;;;;;17.48;100.00;96439.59;5037075;28;20221;-72
2022/10/22 11:05:07;;;;;;;1.63;1.10;;;;;;;17.59;100.00;96444.25;5037180;28;20201;-72
2022/10/22 11:07:40;;;;;;;2.55;1.40;;;;;;;17.74;100.00;96442.06;5036986;28;21002;-72
2022/10/22 11:10:15;;;;;;;2.00;1.10;;;;;;;17.73;100.00;96448.44;5037622;28;20213;-72
2022/10/22 11:12:47;;;;;;;1.92;1.20;;;;;;;17.74;100.00;96434.06;5036445;28;20233;-70
2022/10/22 11:15:25;;;;;;;2.28;1.40;;;;;;;18.08;100.00;96425.63;5038011;28;20210;-71
2022/10/22 11:17:56;;;;;;;3.47;0.95;;;;;;;18.10;97.75;96427.03;5044624;28;21302;-74
2022/10/22 11:20:28;;;;;;;3.08;1.95;;;;;;;18.17;100.00;96424.31;5044405;28;20201;-72
2022/10/22 11:23:04;;;;;;;4.32;1.02;;;;;;;18.01;99.70;96423.00;5041311;28;20312;-71
2022/10/22 11:25:38;;;;;;;3.65;1.60;;;;;;;18.13;100.00;96423.13;5040811;28;20201;-73
2022/10/22 11:28:11;;;;;;;1.83;1.40;;;;;;;18.20;96.96;96423.88;5040787;28;20282;-72
2022/10/22 11:30:40;;;;;;;5.10;1.90;;;;;;;18.26;98.82;96425.69;5040973;28;20217;-72
2022/10/22 11:33:12;;;;;;;3.47;1.40;;;;;;;18.39;97.99;96424.53;5040017;28;20228;-72
2022/10/22 11:35:42;;;;;;;1.85;1.20;;;;;;;18.34;96.76;96424.38;5040644;28;20225;-72